createdAt,value
2023-05-14T01:03:49.068Z,13.00
2023-05-14T01:06:29.036Z,13.00
2023-05-14T01:09:15.358Z,12.96
2023-05-14T01:11:59.874Z,12.90
2023-05-14T01:14:40.283Z,12.90
2023-05-14T01:17:10.929Z,12.88
2023-05-14T01:19:43.909Z,12.80
2023-05-14T01:22:12.583Z,12.80
2023-05-14T01:24:40.528Z,12.80
2023-05-14T01:27:35.041Z,12.80
2023-05-14T01:30:26.981Z,12.70
2023-05-14T01:32:56.777Z,12.70
2023-05-14T01:35:27.072Z,12.62
2023-05-14T01:38:00.759Z,12.60
2023-05-14T01:40:29.053Z,12.58
2023-05-14T01:42:57.524Z,12.52
2023-05-14T01:45:25.505Z,12.50
2023-05-14T01:47:53.897Z,12.50
2023-05-14T01:50:21.945Z,12.50
2023-05-14T01:52:51.302Z,12.40
2023-05-14T01:55:19.219Z,12.40
2023-05-14T01:57:46.923Z,12.30
2023-05-14T02:00:15.096Z,12.30
2023-05-14T02:02:42.883Z,12.20
2023-05-14T02:05:12.775Z,12.20
2023-05-14T02:07:40.480Z,12.10
2023-05-14T02:10:10.806Z,12.10
2023-05-14T02:12:38.651Z,12.00
2023-05-14T02:15:09.101Z,12.00
2023-05-14T02:17:37.007Z,11.90
2023-05-14T02:20:05.499Z,11.90
2023-05-14T02:22:33.317Z,11.86
2023-05-14T02:25:01.348Z,11.80
2023-05-14T02:27:29.128Z,11.80
2023-05-14T02:30:00.941Z,11.70
2023-05-14T02:32:28.859Z,11.70
2023-05-14T02:34:56.662Z,11.64
2023-05-14T02:37:24.325Z,11.60
2023-05-14T02:39:53.485Z,11.62
2023-05-14T02:42:23.530Z,11.62
2023-05-14T02:44:52.452Z,11.60
2023-05-14T02:47:20.240Z,11.60
2023-05-14T02:49:48.562Z,11.60
2023-05-14T02:52:16.280Z,11.60
2023-05-14T02:54:43.966Z,11.50
2023-05-14T02:57:11.634Z,11.50
2023-05-14T02:59:39.391Z,11.50
2023-05-14T03:02:07.919Z,11.46
2023-05-14T03:04:36.069Z,11.40
2023-05-14T03:07:03.844Z,11.40
2023-05-14T03:09:31.504Z,11.40
2023-05-14T03:12:00.582Z,11.40
2023-05-14T03:14:28.376Z,11.30
2023-05-14T03:16:56.084Z,11.30
2023-05-14T03:19:23.785Z,11.30
2023-05-14T03:21:51.549Z,11.30
2023-05-14T03:24:19.260Z,11.30
2023-05-14T03:26:46.979Z,11.30
2023-05-14T03:29:18.040Z,11.30
2023-05-14T03:31:45.815Z,11.30
2023-05-14T03:34:13.627Z,11.38
2023-05-14T03:36:41.340Z,11.40
2023-05-14T03:39:09.610Z,11.38
2023-05-14T03:41:37.803Z,11.40
2023-05-14T03:44:06.374Z,11.40
2023-05-14T03:46:34.077Z,11.32
2023-05-14T03:49:01.970Z,11.32
2023-05-14T03:51:30.137Z,11.30
2023-05-14T03:54:00.822Z,11.30
2023-05-14T03:56:28.575Z,11.34
2023-05-14T03:58:56.325Z,11.40
2023-05-14T04:01:24.039Z,11.40
2023-05-14T04:03:52.015Z,11.40
2023-05-14T04:06:20.042Z,11.50
2023-05-14T04:08:47.823Z,11.50
2023-05-14T04:11:15.503Z,11.50
2023-05-14T04:13:43.260Z,11.60
2023-05-14T04:16:11.417Z,11.60
2023-05-14T04:18:40.630Z,11.70
2023-05-14T04:21:08.476Z,11.70
2023-05-14T04:23:36.344Z,11.80
2023-05-14T04:26:05.150Z,11.80
2023-05-14T04:28:32.993Z,11.90
2023-05-14T04:31:01.386Z,11.90
2023-05-14T04:33:29.328Z,12.00
2023-05-14T04:35:57.081Z,12.02
2023-05-14T04:38:24.759Z,12.10
2023-05-14T04:40:52.762Z,12.20
2023-05-14T04:43:20.715Z,12.22
2023-05-14T04:45:48.551Z,12.30
2023-05-14T04:48:16.423Z,12.40
2023-05-14T04:50:44.411Z,12.50
2023-05-14T04:53:12.111Z,12.60
2023-05-14T04:55:39.836Z,12.60
2023-05-14T04:58:07.537Z,12.70
2023-05-14T05:00:35.256Z,12.80
2023-05-14T05:03:03.545Z,12.90
2023-05-14T05:05:31.460Z,13.20
2023-05-14T05:07:59.192Z,13.76
2023-05-14T05:10:27.022Z,14.56
2023-05-14T05:12:54.803Z,15.30
2023-05-14T05:15:24.124Z,15.76
2023-05-14T05:17:53.066Z,16.60
2023-05-14T05:20:20.909Z,17.36
2023-05-14T05:22:48.732Z,17.70
2023-05-14T05:25:16.494Z,17.60
2023-05-14T05:27:44.190Z,17.26
2023-05-14T05:30:12.489Z,17.10
2023-05-14T05:32:40.378Z,16.90
2023-05-14T05:35:08.489Z,16.80
2023-05-14T05:37:36.393Z,17.40
2023-05-14T05:40:05.545Z,17.36
2023-05-14T05:42:33.398Z,17.20
2023-05-14T05:45:01.087Z,17.20
2023-05-14T05:47:28.900Z,17.20
2023-05-14T05:49:57.061Z,17.10
2023-05-14T05:52:24.812Z,17.10
2023-05-14T05:54:52.568Z,17.10
2023-05-14T05:57:21.899Z,17.10
2023-05-14T05:59:49.606Z,17.16
2023-05-14T06:02:17.363Z,17.46
2023-05-14T06:04:45.455Z,18.22
2023-05-14T06:07:13.229Z,18.74
2023-05-14T06:09:40.882Z,19.10
2023-05-14T06:12:09.064Z,19.60
2023-05-14T06:14:36.806Z,19.82
2023-05-14T06:17:04.777Z,20.70
2023-05-14T06:19:32.579Z,21.76
2023-05-14T06:22:00.294Z,22.86
2023-05-14T06:24:27.943Z,23.40
2023-05-14T06:26:55.611Z,23.68
2023-05-14T06:29:23.281Z,24.26
2023-05-14T06:31:51.013Z,24.60
2023-05-14T06:34:18.700Z,24.08
2023-05-14T06:36:46.454Z,23.44
2023-05-14T06:39:14.294Z,23.06
2023-05-14T06:41:42.070Z,22.58
2023-05-14T06:44:11.180Z,22.20
2023-05-14T06:46:39.231Z,21.90
2023-05-14T06:49:07.019Z,21.60
2023-05-14T06:51:34.716Z,21.30
2023-05-14T06:54:02.367Z,21.10
2023-05-14T06:56:30.271Z,20.90
2023-05-14T06:58:58.018Z,20.70
2023-05-14T07:01:25.873Z,20.60
2023-05-14T07:03:53.753Z,20.40
2023-05-14T07:06:22.568Z,20.30
2023-05-14T07:08:50.492Z,20.20
2023-05-14T07:11:18.190Z,20.10
2023-05-14T07:13:45.922Z,20.10
2023-05-14T07:16:13.681Z,20.10
2023-05-14T07:18:41.655Z,20.10
2023-05-14T07:21:09.398Z,20.10
2023-05-14T07:23:38.517Z,20.20
2023-05-14T07:26:06.936Z,20.20
2023-05-14T07:28:35.325Z,20.20
2023-05-14T07:31:05.173Z,20.20
2023-05-14T07:33:32.941Z,20.48
2023-05-14T07:36:00.707Z,21.26
2023-05-14T07:38:28.537Z,21.98
2023-05-14T07:40:56.208Z,22.62
2023-05-14T07:43:23.977Z,23.00
2023-05-14T07:45:51.891Z,22.80
2023-05-14T07:48:19.767Z,22.48
2023-05-14T07:50:48.887Z,22.10
2023-05-14T07:53:16.886Z,21.90
2023-05-14T07:55:47.768Z,21.70
2023-05-14T07:58:16.268Z,21.58
2023-05-14T08:00:44.012Z,21.40
2023-05-14T08:03:11.895Z,21.30
2023-05-14T08:05:39.849Z,21.10
2023-05-14T08:08:07.714Z,21.00
2023-05-14T08:10:35.847Z,20.90
2023-05-14T08:13:03.689Z,20.80
2023-05-14T08:15:31.712Z,20.80
2023-05-14T08:18:03.686Z,20.80
2023-05-14T08:20:31.485Z,20.90
2023-05-14T08:22:59.226Z,20.84
2023-05-14T08:25:26.982Z,20.80
2023-05-14T08:27:54.907Z,20.80
2023-05-14T08:30:23.377Z,20.80
2023-05-14T08:32:51.626Z,20.80
2023-05-14T08:35:19.694Z,20.90
2023-05-14T08:37:47.485Z,20.90
2023-05-14T08:40:16.741Z,21.00
2023-05-14T08:42:45.285Z,21.00
2023-05-14T08:45:28.616Z,21.04
2023-05-14T08:47:57.550Z,21.14
2023-05-14T08:50:25.811Z,21.20
2023-05-14T08:52:53.797Z,21.30
2023-05-14T08:55:22.592Z,21.34
2023-05-14T08:57:50.505Z,21.40
2023-05-14T09:00:18.747Z,21.36
2023-05-14T09:02:46.709Z,21.40
2023-05-14T09:05:14.914Z,21.40
2023-05-14T09:07:42.835Z,21.40
2023-05-14T09:10:11.382Z,21.40
2023-05-14T09:12:39.128Z,21.40
2023-05-14T09:15:07.449Z,21.50
2023-05-14T09:17:35.394Z,21.60
2023-05-14T09:20:04.151Z,21.60
2023-05-14T09:22:34.971Z,21.70
2023-05-14T09:25:14.781Z,21.80
2023-05-14T09:27:42.646Z,21.80
2023-05-14T09:30:12.493Z,21.80
2023-05-14T09:32:51.653Z,21.90
2023-05-14T09:35:21.394Z,21.90
2023-05-14T09:37:53.689Z,21.90
2023-05-14T09:40:24.118Z,21.98
2023-05-14T09:42:52.483Z,22.00
2023-05-14T09:45:20.354Z,22.00
2023-05-14T09:47:48.240Z,22.00
2023-05-14T09:50:16.172Z,22.00
2023-05-14T09:52:43.941Z,22.00
2023-05-14T09:55:11.787Z,22.10
2023-05-14T09:57:39.967Z,22.10
2023-05-14T10:00:09.354Z,22.20
2023-05-14T10:02:38.529Z,22.22
2023-05-14T10:05:07.679Z,22.30
2023-05-14T10:07:47.757Z,22.30
2023-05-14T10:10:16.856Z,22.40
2023-05-14T10:12:51.700Z,22.46
2023-05-14T10:15:24.003Z,22.50
2023-05-14T10:17:56.199Z,22.50
2023-05-14T10:20:25.216Z,22.60
2023-05-14T10:22:53.396Z,22.60
2023-05-14T10:25:21.385Z,22.66
2023-05-14T10:27:49.224Z,22.70
2023-05-14T10:30:20.967Z,22.70
2023-05-14T10:32:48.746Z,22.70
2023-05-14T10:35:22.290Z,22.70
2023-05-14T10:37:51.832Z,22.70
2023-05-14T10:40:23.673Z,22.70
2023-05-14T10:42:51.935Z,22.80
2023-05-14T10:45:20.097Z,22.80
2023-05-14T10:47:48.824Z,22.90
2023-05-14T10:50:17.781Z,23.00
2023-05-14T10:52:45.875Z,23.10
2023-05-14T10:55:16.662Z,23.22
2023-05-14T10:57:46.078Z,23.38
2023-05-14T11:00:15.208Z,23.40
2023-05-14T11:02:44.403Z,23.50
2023-05-14T11:05:15.722Z,23.50
2023-05-14T11:07:46.218Z,23.50
2023-05-14T11:10:16.334Z,23.50
2023-05-14T11:12:46.550Z,23.52
2023-05-14T11:15:16.991Z,23.58
2023-05-14T11:17:45.837Z,23.50
2023-05-14T11:20:14.221Z,23.50
2023-05-14T11:22:43.125Z,23.50
2023-05-14T11:25:14.482Z,23.60
2023-05-14T11:27:44.258Z,23.60
2023-05-14T11:30:19.822Z,23.60
2023-05-14T11:32:48.597Z,23.60
2023-05-14T11:35:17.603Z,23.54
2023-05-14T11:37:52.591Z,23.60
2023-05-14T11:40:20.789Z,23.62
2023-05-14T11:42:52.161Z,23.70
2023-05-14T11:45:27.132Z,23.70
2023-05-14T11:47:55.030Z,23.60
2023-05-14T11:50:23.556Z,23.70
